sensor_id;sensor_type;location;lat;lon;timestamp;pressure;altitude;pressure_sealevel;temperature;humidity
23996;BME280;12207;50.076;8.848;2023-08-24T00:01:23;100298.13;;;18.31;79.97
23996;BME280;12207;50.076;8.848;2023-08-24T00:03:49;100304.34;;;18.31;80.51
23996;BME280;12207;50.076;8.848;2023-08-24T00:06:15;100310.59;;;18.32;80.56
23996;BME280;12207;50.076;8.848;2023-08-24T00:08:45;100312.25;;;18.33;80.41
23996;BME280;12207;50.076;8.848;2023-08-24T00:11:11;100294.84;;;18.29;80.91
23996;BME280;12207;50.076;8.848;2023-08-24T00:13:41;100302.41;;;18.27;81.02
23996;BME280;12207;50.076;8.848;2023-08-24T00:16:12;100307.81;;;18.22;80.88
23996;BME280;12207;50.076;8.848;2023-08-24T00:18:38;100301.81;;;18.20;81.31
23996;BME280;12207;50.076;8.848;2023-08-24T00:21:04;100294.72;;;18.14;81.49
23996;BME280;12207;50.076;8.848;2023-08-24T00:23:30;100300.97;;;18.14;81.77
23996;BME280;12207;50.076;8.848;2023-08-24T00:25:56;100310.75;;;18.15;81.79
23996;BME280;12207;50.076;8.848;2023-08-24T00:28:22;100312.59;;;18.10;82.03
23996;BME280;12207;50.076;8.848;2023-08-24T00:30:49;100310.97;;;18.09;82.37
23996;BME280;12207;50.076;8.848;2023-08-24T00:33:15;100305.53;;;18.09;82.48
23996;BME280;12207;50.076;8.848;2023-08-24T00:35:41;100301.75;;;18.10;82.60
23996;BME280;12207;50.076;8.848;2023-08-24T00:38:07;100291.22;;;18.13;82.36
23996;BME280;12207;50.076;8.848;2023-08-24T00:40:33;100305.03;;;18.12;82.56
23996;BME280;12207;50.076;8.848;2023-08-24T00:43:00;100308.19;;;18.03;82.86
23996;BME280;12207;50.076;8.848;2023-08-24T00:45:26;100305.44;;;17.98;83.27
23996;BME280;12207;50.076;8.848;2023-08-24T00:47:53;100292.44;;;18.00;83.14
23996;BME280;12207;50.076;8.848;2023-08-24T00:50:20;100299.50;;;18.01;83.08
23996;BME280;12207;50.076;8.848;2023-08-24T00:52:47;100280.78;;;18.00;83.21
23996;BME280;12207;50.076;8.848;2023-08-24T00:55:15;100294.84;;;17.97;83.58
23996;BME280;12207;50.076;8.848;2023-08-24T00:57:42;100294.59;;;17.98;83.35
23996;BME280;12207;50.076;8.848;2023-08-24T01:00:09;100301.13;;;18.02;83.01
23996;BME280;12207;50.076;8.848;2023-08-24T01:02:39;100298.63;;;17.96;83.66
23996;BME280;12207;50.076;8.848;2023-08-24T01:05:05;100299.72;;;17.95;83.53
23996;BME280;12207;50.076;8.848;2023-08-24T01:07:34;100313.53;;;17.93;83.75
23996;BME280;12207;50.076;8.848;2023-08-24T01:10:03;100315.13;;;17.89;83.82
23996;BME280;12207;50.076;8.848;2023-08-24T01:12:51;100314.56;;;17.87;84.13
23996;BME280;12207;50.076;8.848;2023-08-24T01:15:37;100319.09;;;17.82;83.84
23996;BME280;12207;50.076;8.848;2023-08-24T01:18:10;100329.19;;;17.86;83.64
23996;BME280;12207;50.076;8.848;2023-08-24T01:20:38;100331.28;;;17.79;84.28
23996;BME280;12207;50.076;8.848;2023-08-24T01:23:27;100335.94;;;17.84;84.07
23996;BME280;12207;50.076;8.848;2023-08-24T01:26:10;100341.25;;;17.73;84.74
23996;BME280;12207;50.076;8.848;2023-08-24T01:28:37;100334.81;;;17.80;84.68
23996;BME280;12207;50.076;8.848;2023-08-24T01:31:04;100334.56;;;17.81;84.32
23996;BME280;12207;50.076;8.848;2023-08-24T01:33:31;100344.31;;;17.82;83.98
23996;BME280;12207;50.076;8.848;2023-08-24T01:35:57;100348.63;;;17.78;84.35
23996;BME280;12207;50.076;8.848;2023-08-24T01:38:23;100337.72;;;17.73;84.76
23996;BME280;12207;50.076;8.848;2023-08-24T01:41:44;100346.38;;;17.70;84.64
23996;BME280;12207;50.076;8.848;2023-08-24T01:43:53;100334.47;;;17.71;84.77
23996;BME280;12207;50.076;8.848;2023-08-24T01:46:21;100336.63;;;17.74;84.73
23996;BME280;12207;50.076;8.848;2023-08-24T01:48:48;100325.28;;;17.77;84.43
23996;BME280;12207;50.076;8.848;2023-08-24T01:51:15;100324.53;;;17.82;84.29
23996;BME280;12207;50.076;8.848;2023-08-24T01:53:42;100332.16;;;17.85;84.24
23996;BME280;12207;50.076;8.848;2023-08-24T01:56:12;100326.47;;;17.86;83.83
23996;BME280;12207;50.076;8.848;2023-08-24T01:58:39;100328.38;;;17.86;83.99
23996;BME280;12207;50.076;8.848;2023-08-24T02:01:07;100324.84;;;17.85;83.71
23996;BME280;12207;50.076;8.848;2023-08-24T02:03:33;100319.09;;;17.82;84.26
23996;BME280;12207;50.076;8.848;2023-08-24T02:05:59;100326.97;;;17.83;83.59
23996;BME280;12207;50.076;8.848;2023-08-24T02:08:25;100322.06;;;17.80;83.96
23996;BME280;12207;50.076;8.848;2023-08-24T02:10:51;100321.00;;;17.81;83.72
23996;BME280;12207;50.076;8.848;2023-08-24T02:13:18;100314.44;;;17.77;83.89
23996;BME280;12207;50.076;8.848;2023-08-24T02:15:44;100311.16;;;17.75;84.07
23996;BME280;12207;50.076;8.848;2023-08-24T02:18:10;100308.72;;;17.73;84.22
23996;BME280;12207;50.076;8.848;2023-08-24T02:20:39;100291.63;;;17.73;84.14
23996;BME280;12207;50.076;8.848;2023-08-24T02:23:06;100306.31;;;17.77;84.48
23996;BME280;12207;50.076;8.848;2023-08-24T02:25:32;100309.59;;;17.79;84.00
23996;BME280;12207;50.076;8.848;2023-08-24T02:27:59;100301.97;;;17.76;83.81
23996;BME280;12207;50.076;8.848;2023-08-24T02:30:25;100293.81;;;17.71;83.97
23996;BME280;12207;50.076;8.848;2023-08-24T02:32:52;100295.97;;;17.69;84.32
23996;BME280;12207;50.076;8.848;2023-08-24T02:35:18;100298.66;;;17.69;84.15
23996;BME280;12207;50.076;8.848;2023-08-24T02:37:47;100288.38;;;17.71;84.02
23996;BME280;12207;50.076;8.848;2023-08-24T02:40:15;100291.34;;;17.69;84.15
23996;BME280;12207;50.076;8.848;2023-08-24T02:42:41;100281.88;;;17.72;84.17
23996;BME280;12207;50.076;8.848;2023-08-24T02:45:07;100289.50;;;17.75;84.54
23996;BME280;12207;50.076;8.848;2023-08-24T02:47:36;100285.19;;;17.79;83.77
23996;BME280;12207;50.076;8.848;2023-08-24T02:50:04;100290.09;;;17.82;83.57
23996;BME280;12207;50.076;8.848;2023-08-24T02:52:32;100289.59;;;17.85;83.71
23996;BME280;12207;50.076;8.848;2023-08-24T02:54:58;100285.25;;;17.84;83.63
23996;BME280;12207;50.076;8.848;2023-08-24T02:57:24;100282.03;;;17.87;83.76
23996;BME280;12207;50.076;8.848;2023-08-24T02:59:56;100281.53;;;17.90;83.53
23996;BME280;12207;50.076;8.848;2023-08-24T03:02:22;100285.63;;;17.98;83.00
23996;BME280;12207;50.076;8.848;2023-08-24T03:04:48;100270.19;;;17.98;83.06
23996;BME280;12207;50.076;8.848;2023-08-24T03:07:14;100281.03;;;17.98;83.58
23996;BME280;12207;50.076;8.848;2023-08-24T03:09:40;100275.66;;;18.03;83.04
23996;BME280;12207;50.076;8.848;2023-08-24T03:12:07;100271.31;;;18.02;82.56
23996;BME280;12207;50.076;8.848;2023-08-24T03:14:36;100268.28;;;17.99;82.96
23996;BME280;12207;50.076;8.848;2023-08-24T03:17:02;100272.38;;;18.01;82.99
23996;BME280;12207;50.076;8.848;2023-08-24T03:19:30;100264.81;;;18.03;83.45
23996;BME280;12207;50.076;8.848;2023-08-24T03:21:56;100268.91;;;18.06;83.01
23996;BME280;12207;50.076;8.848;2023-08-24T03:24:23;100267.00;;;18.06;83.01
23996;BME280;12207;50.076;8.848;2023-08-24T03:26:49;100274.63;;;18.10;82.85
23996;BME280;12207;50.076;8.848;2023-08-24T03:29:15;100264.59;;;18.10;82.87
23996;BME280;12207;50.076;8.848;2023-08-24T03:31:41;100251.28;;;18.09;82.94
23996;BME280;12207;50.076;8.848;2023-08-24T03:34:07;100235.53;;;18.05;83.10
23996;BME280;12207;50.076;8.848;2023-08-24T03:36:33;100248.59;;;18.09;82.79
23996;BME280;12207;50.076;8.848;2023-08-24T03:38:59;100255.91;;;18.08;82.79
23996;BME280;12207;50.076;8.848;2023-08-24T03:41:25;100250.16;;;18.04;82.37
23996;BME280;12207;50.076;8.848;2023-08-24T03:43:51;100254.47;;;18.00;82.87
23996;BME280;12207;50.076;8.848;2023-08-24T03:46:17;100252.28;;;17.97;82.73
23996;BME280;12207;50.076;8.848;2023-08-24T03:48:44;100249.53;;;17.92;82.96
23996;BME280;12207;50.076;8.848;2023-08-24T03:51:10;100241.94;;;17.89;83.29
23996;BME280;12207;50.076;8.848;2023-08-24T03:53:36;100231.81;;;17.80;83.24
23996;BME280;12207;50.076;8.848;2023-08-24T03:56:02;100230.41;;;17.77;83.39
23996;BME280;12207;50.076;8.848;2023-08-24T03:58:28;100227.19;;;17.80;83.41
23996;BME280;12207;50.076;8.848;2023-08-24T04:00:54;100228.84;;;17.81;83.33
23996;BME280;12207;50.076;8.848;2023-08-24T04:03:21;100224.19;;;17.77;83.04
23996;BME280;12207;50.076;8.848;2023-08-24T04:05:50;100209.00;;;17.76;83.62
23996;BME280;12207;50.076;8.848;2023-08-24T04:08:16;100214.94;;;17.72;83.58
23996;BME280;12207;50.076;8.848;2023-08-24T04:10:43;100217.13;;;17.76;83.64
23996;BME280;12207;50.076;8.848;2023-08-24T04:13:09;100197.63;;;17.79;83.75
23996;BME280;12207;50.076;8.848;2023-08-24T04:15:36;100203.88;;;17.79;83.87
23996;BME280;12207;50.076;8.848;2023-08-24T04:18:02;100195.84;;;17.89;83.24
23996;BME280;12207;50.076;8.848;2023-08-24T04:20:28;100195.88;;;17.94;83.06
23996;BME280;12207;50.076;8.848;2023-08-24T04:22:55;100199.69;;;17.98;82.78
23996;BME280;12207;50.076;8.848;2023-08-24T04:25:22;100197.47;;;17.90;82.86
23996;BME280;12207;50.076;8.848;2023-08-24T04:27:48;100209.34;;;17.84;82.98
23996;BME280;12207;50.076;8.848;2023-08-24T04:30:14;100209.31;;;17.79;83.16
23996;BME280;12207;50.076;8.848;2023-08-24T04:32:40;100205.50;;;17.80;83.06
23996;BME280;12207;50.076;8.848;2023-08-24T04:35:07;100206.34;;;17.81;83.17
23996;BME280;12207;50.076;8.848;2023-08-24T04:37:33;100197.06;;;17.77;83.50
23996;BME280;12207;50.076;8.848;2023-08-24T04:40:00;100173.75;;;17.70;83.35
23996;BME280;12207;50.076;8.848;2023-08-24T04:42:29;100155.59;;;17.71;83.61
23996;BME280;12207;50.076;8.848;2023-08-24T04:44:55;100171.34;;;17.79;83.41
23996;BME280;12207;50.076;8.848;2023-08-24T04:47:24;100174.72;;;17.96;82.62
23996;BME280;12207;50.076;8.848;2023-08-24T04:49:50;100177.78;;;18.05;82.05
23996;BME280;12207;50.076;8.848;2023-08-24T04:52:16;100192.66;;;18.02;82.45
23996;BME280;12207;50.076;8.848;2023-08-24T04:54:43;100197.00;;;18.03;82.40
23996;BME280;12207;50.076;8.848;2023-08-24T04:57:09;100186.69;;;18.00;83.19
23996;BME280;12207;50.076;8.848;2023-08-24T04:59:35;100182.94;;;18.06;82.79
23996;BME280;12207;50.076;8.848;2023-08-24T05:02:01;100176.47;;;18.13;82.74
23996;BME280;12207;50.076;8.848;2023-08-24T05:04:30;100172.22;;;18.27;81.55
23996;BME280;12207;50.076;8.848;2023-08-24T05:06:56;100183.59;;;18.24;81.26
23996;BME280;12207;50.076;8.848;2023-08-24T05:09:22;100187.91;;;18.20;81.34
23996;BME280;12207;50.076;8.848;2023-08-24T05:11:48;100212.88;;;18.22;82.05
23996;BME280;12207;50.076;8.848;2023-08-24T05:14:14;100236.72;;;18.20;82.33
23996;BME280;12207;50.076;8.848;2023-08-24T05:16:40;100241.66;;;18.28;82.01
23996;BME280;12207;50.076;8.848;2023-08-24T05:19:07;100256.31;;;18.27;81.89
23996;BME280;12207;50.076;8.848;2023-08-24T05:21:33;100276.13;;;18.27;81.33
23996;BME280;12207;50.076;8.848;2023-08-24T05:23:59;100290.03;;;18.36;81.12
23996;BME280;12207;50.076;8.848;2023-08-24T05:26:25;100297.31;;;18.30;81.06
23996;BME280;12207;50.076;8.848;2023-08-24T05:28:53;100308.44;;;18.34;81.01
23996;BME280;12207;50.076;8.848;2023-08-24T05:31:19;100326.94;;;18.37;81.25
23996;BME280;12207;50.076;8.848;2023-08-24T05:33:45;100323.72;;;18.45;80.76
23996;BME280;12207;50.076;8.848;2023-08-24T05:36:11;100344.66;;;18.50;80.43
23996;BME280;12207;50.076;8.848;2023-08-24T05:38:37;100356.28;;;18.45;80.33
23996;BME280;12207;50.076;8.848;2023-08-24T05:41:04;100368.25;;;18.49;80.34
23996;BME280;12207;50.076;8.848;2023-08-24T05:43:30;100370.03;;;18.60;79.78
23996;BME280;12207;50.076;8.848;2023-08-24T05:45:56;100373.03;;;18.69;79.43
23996;BME280;12207;50.076;8.848;2023-08-24T05:48:22;100358.69;;;18.73;78.88
23996;BME280;12207;50.076;8.848;2023-08-24T05:50:48;100350.66;;;18.89;78.30
23996;BME280;12207;50.076;8.848;2023-08-24T05:53:15;100359.97;;;19.03;78.09
23996;BME280;12207;50.076;8.848;2023-08-24T05:55:44;100363.59;;;19.19;78.01
23996;BME280;12207;50.076;8.848;2023-08-24T05:58:16;100371.00;;;19.33;78.18
23996;BME280;12207;50.076;8.848;2023-08-24T06:00:42;100369.97;;;19.50;78.79
23996;BME280;12207;50.076;8.848;2023-08-24T06:03:08;100366.53;;;19.59;76.90
23996;BME280;12207;50.076;8.848;2023-08-24T06:05:34;100354.31;;;19.72;75.52
23996;BME280;12207;50.076;8.848;2023-08-24T06:08:00;100353.22;;;19.73;75.00
23996;BME280;12207;50.076;8.848;2023-08-24T06:10:26;100357.03;;;19.72;75.03
23996;BME280;12207;50.076;8.848;2023-08-24T06:12:53;100352.44;;;19.93;75.13
23996;BME280;12207;50.076;8.848;2023-08-24T06:15:19;100354.94;;;20.15;76.21
23996;BME280;12207;50.076;8.848;2023-08-24T06:17:46;100359.84;;;20.07;74.82
23996;BME280;12207;50.076;8.848;2023-08-24T06:20:13;100357.66;;;20.04;73.11
23996;BME280;12207;50.076;8.848;2023-08-24T06:22:40;100363.66;;;20.27;73.37
23996;BME280;12207;50.076;8.848;2023-08-24T06:25:06;100362.03;;;20.31;71.79
23996;BME280;12207;50.076;8.848;2023-08-24T06:27:34;100357.44;;;20.47;70.88
23996;BME280;12207;50.076;8.848;2023-08-24T06:30:00;100359.34;;;20.51;70.39
23996;BME280;12207;50.076;8.848;2023-08-24T06:32:27;100363.16;;;20.50;70.89
23996;BME280;12207;50.076;8.848;2023-08-24T06:34:53;100357.69;;;20.75;71.32
23996;BME280;12207;50.076;8.848;2023-08-24T06:37:20;100361.22;;;20.76;70.10
23996;BME280;12207;50.076;8.848;2023-08-24T06:39:46;100360.41;;;20.60;69.78
23996;BME280;12207;50.076;8.848;2023-08-24T06:42:12;100348.69;;;20.75;70.75
23996;BME280;12207;50.076;8.848;2023-08-24T06:44:38;100343.00;;;20.46;70.80
23996;BME280;12207;50.076;8.848;2023-08-24T06:47:04;100337.25;;;20.17;72.16
23996;BME280;12207;50.076;8.848;2023-08-24T06:49:30;100342.97;;;20.36;72.02
23996;BME280;12207;50.076;8.848;2023-08-24T06:51:56;100338.31;;;20.31;73.19
23996;BME280;12207;50.076;8.848;2023-08-24T06:54:22;100322.28;;;20.25;73.42
23996;BME280;12207;50.076;8.848;2023-08-24T06:56:49;100273.31;;;19.94;74.71
23996;BME280;12207;50.076;8.848;2023-08-24T06:59:15;100235.78;;;19.81;75.35
23996;BME280;12207;50.076;8.848;2023-08-24T07:01:41;100220.25;;;19.61;76.04
23996;BME280;12207;50.076;8.848;2023-08-24T07:04:07;100226.50;;;19.52;76.57
23996;BME280;12207;50.076;8.848;2023-08-24T07:06:36;100245.53;;;19.62;76.36
23996;BME280;12207;50.076;8.848;2023-08-24T07:09:03;100258.88;;;19.79;76.44
23996;BME280;12207;50.076;8.848;2023-08-24T07:11:32;100263.53;;;19.98;75.76
23996;BME280;12207;50.076;8.848;2023-08-24T07:13:58;100280.38;;;20.21;75.25
23996;BME280;12207;50.076;8.848;2023-08-24T07:16:24;100296.69;;;20.36;74.57
23996;BME280;12207;50.076;8.848;2023-08-24T07:18:50;100291.56;;;20.45;74.75
23996;BME280;12207;50.076;8.848;2023-08-24T07:21:20;100256.44;;;20.43;74.04
23996;BME280;12207;50.076;8.848;2023-08-24T07:23:46;100221.03;;;20.48;74.75
23996;BME280;12207;50.076;8.848;2023-08-24T07:26:12;100210.69;;;20.35;73.89
23996;BME280;12207;50.076;8.848;2023-08-24T07:28:39;100203.66;;;20.29;73.55
23996;BME280;12207;50.076;8.848;2023-08-24T07:31:09;100224.03;;;20.41;73.72
23996;BME280;12207;50.076;8.848;2023-08-24T07:33:37;100237.91;;;20.50;73.58
23996;BME280;12207;50.076;8.848;2023-08-24T07:36:05;100252.59;;;20.59;73.26
23996;BME280;12207;50.076;8.848;2023-08-24T07:38:32;100247.19;;;20.49;72.06
23996;BME280;12207;50.076;8.848;2023-08-24T07:40:58;100238.41;;;20.62;72.49
23996;BME280;12207;50.076;8.848;2023-08-24T07:43:24;100234.59;;;20.73;73.00
23996;BME280;12207;50.076;8.848;2023-08-24T07:45:51;100240.03;;;20.68;72.01
23996;BME280;12207;50.076;8.848;2023-08-24T07:48:24;100237.88;;;20.60;70.51
23996;BME280;12207;50.076;8.848;2023-08-24T07:50:50;100252.50;;;20.80;71.05
23996;BME280;12207;50.076;8.848;2023-08-24T07:53:16;100251.19;;;20.77;70.81
23996;BME280;12207;50.076;8.848;2023-08-24T07:55:42;100239.50;;;20.71;71.97
23996;BME280;12207;50.076;8.848;2023-08-24T07:58:09;100243.31;;;20.70;73.20
23996;BME280;12207;50.076;8.848;2023-08-24T08:00:38;100234.53;;;20.84;73.26
23996;BME280;12207;50.076;8.848;2023-08-24T08:03:07;100230.66;;;21.00;72.82
23996;BME280;12207;50.076;8.848;2023-08-24T08:05:36;100232.50;;;21.15;72.19
23996;BME280;12207;50.076;8.848;2023-08-24T08:08:03;100226.22;;;21.24;72.03
23996;BME280;12207;50.076;8.848;2023-08-24T08:10:33;100195.66;;;21.27;70.37
23996;BME280;12207;50.076;8.848;2023-08-24T08:12:59;100189.31;;;21.42;68.96
23996;BME280;12207;50.076;8.848;2023-08-24T08:15:25;100166.03;;;21.50;67.67
23996;BME280;12207;50.076;8.848;2023-08-24T08:17:54;100163.25;;;21.60;67.27
23996;BME280;12207;50.076;8.848;2023-08-24T08:20:20;100163.28;;;21.89;67.98
23996;BME280;12207;50.076;8.848;2023-08-24T08:22:49;100156.88;;;22.03;68.56
23996;BME280;12207;50.076;8.848;2023-08-24T08:25:16;100155.78;;;21.99;66.88
23996;BME280;12207;50.076;8.848;2023-08-24T08:27:44;100165.28;;;22.12;66.29
23996;BME280;12207;50.076;8.848;2023-08-24T08:30:11;100190.81;;;22.21;66.59
23996;BME280;12207;50.076;8.848;2023-08-24T08:32:37;100208.50;;;22.29;65.69
23996;BME280;12207;50.076;8.848;2023-08-24T08:35:04;100187.75;;;22.28;66.79
23996;BME280;12207;50.076;8.848;2023-08-24T08:37:33;100177.94;;;22.27;67.14
23996;BME280;12207;50.076;8.848;2023-08-24T08:39:59;100166.44;;;22.30;66.22
23996;BME280;12207;50.076;8.848;2023-08-24T08:42:25;100156.00;;;22.37;65.64
23996;BME280;12207;50.076;8.848;2023-08-24T08:44:52;100162.25;;;22.61;65.94
23996;BME280;12207;50.076;8.848;2023-08-24T08:47:21;100163.66;;;22.83;65.40
23996;BME280;12207;50.076;8.848;2023-08-24T08:49:49;100169.44;;;23.00;64.90
23996;BME280;12207;50.076;8.848;2023-08-24T08:52:16;100157.97;;;23.17;64.91
23996;BME280;12207;50.076;8.848;2023-08-24T08:54:42;100156.06;;;22.74;64.92
23996;BME280;12207;50.076;8.848;2023-08-24T08:57:09;100143.78;;;23.52;63.70
23996;BME280;12207;50.076;8.848;2023-08-24T08:59:36;100150.81;;;24.04;61.41
23996;BME280;12207;50.076;8.848;2023-08-24T09:02:03;100148.38;;;25.12;59.17
23996;BME280;12207;50.076;8.848;2023-08-24T09:04:31;100154.47;;;25.68;58.60
23996;BME280;12207;50.076;8.848;2023-08-24T09:06:57;100149.44;;;25.03;57.39
23996;BME280;12207;50.076;8.848;2023-08-24T09:09:27;100142.78;;;24.54;59.51
23996;BME280;12207;50.076;8.848;2023-08-24T09:11:53;100145.34;;;24.04;60.42
23996;BME280;12207;50.076;8.848;2023-08-24T09:14:19;100145.69;;;24.58;59.37
23996;BME280;12207;50.076;8.848;2023-08-24T09:16:45;100141.13;;;24.67;59.43
23996;BME280;12207;50.076;8.848;2023-08-24T09:19:12;100135.06;;;24.56;59.59
23996;BME280;12207;50.076;8.848;2023-08-24T09:21:39;100128.63;;;25.24;58.26
23996;BME280;12207;50.076;8.848;2023-08-24T09:24:06;100128.38;;;25.34;57.21
23996;BME280;12207;50.076;8.848;2023-08-24T09:26:34;100127.50;;;24.75;58.49
23996;BME280;12207;50.076;8.848;2023-08-24T09:29:05;100123.34;;;24.78;58.54
23996;BME280;12207;50.076;8.848;2023-08-24T09:31:37;100118.97;;;25.27;58.48
23996;BME280;12207;50.076;8.848;2023-08-24T09:34:05;100112.25;;;26.17;55.73
23996;BME280;12207;50.076;8.848;2023-08-24T09:36:33;100118.13;;;26.90;54.19
23996;BME280;12207;50.076;8.848;2023-08-24T09:39:00;100104.22;;;26.86;54.04
23996;BME280;12207;50.076;8.848;2023-08-24T09:41:46;100105.53;;;27.23;54.13
23996;BME280;12207;50.076;8.848;2023-08-24T09:44:13;100104.09;;;27.98;52.71
23996;BME280;12207;50.076;8.848;2023-08-24T09:46:42;100099.88;;;28.09;51.45
23996;BME280;12207;50.076;8.848;2023-08-24T09:49:09;100102.63;;;28.09;51.10
23996;BME280;12207;50.076;8.848;2023-08-24T09:51:38;100100.53;;;27.98;50.70
23996;BME280;12207;50.076;8.848;2023-08-24T09:54:09;100092.84;;;28.12;50.07
23996;BME280;12207;50.076;8.848;2023-08-24T09:56:37;100088.59;;;28.32;50.56
23996;BME280;12207;50.076;8.848;2023-08-24T09:59:14;100069.53;;;28.68;49.66
23996;BME280;12207;50.076;8.848;2023-08-24T10:01:47;100060.09;;;28.19;48.93
23996;BME280;12207;50.076;8.848;2023-08-24T10:04:22;100045.66;;;28.51;49.49
23996;BME280;12207;50.076;8.848;2023-08-24T10:07:03;100047.31;;;28.44;50.29
23996;BME280;12207;50.076;8.848;2023-08-24T10:09:58;100035.91;;;28.33;49.40
23996;BME280;12207;50.076;8.848;2023-08-24T10:12:28;100034.19;;;28.91;48.84
23996;BME280;12207;50.076;8.848;2023-08-24T10:15:00;100044.25;;;28.66;49.25
23996;BME280;12207;50.076;8.848;2023-08-24T10:17:32;100050.41;;;28.42;49.50
23996;BME280;12207;50.076;8.848;2023-08-24T10:20:00;100053.09;;;28.80;49.40
23996;BME280;12207;50.076;8.848;2023-08-24T10:22:35;100036.69;;;29.05;48.39
23996;BME280;12207;50.076;8.848;2023-08-24T10:25:02;100022.47;;;29.48;49.14
23996;BME280;12207;50.076;8.848;2023-08-24T10:27:29;100017.31;;;29.83;46.67
23996;BME280;12207;50.076;8.848;2023-08-24T10:29:56;100022.22;;;30.50;45.68
23996;BME280;12207;50.076;8.848;2023-08-24T10:32:25;100012.94;;;30.43;46.79
23996;BME280;12207;50.076;8.848;2023-08-24T10:34:54;100006.44;;;29.41;46.15
23996;BME280;12207;50.076;8.848;2023-08-24T10:37:27;100003.97;;;29.73;47.83
23996;BME280;12207;50.076;8.848;2023-08-24T10:39:53;100004.63;;;29.58;47.73
23996;BME280;12207;50.076;8.848;2023-08-24T10:42:19;100010.28;;;29.73;46.73
23996;BME280;12207;50.076;8.848;2023-08-24T10:44:47;100002.88;;;29.53;45.23
23996;BME280;12207;50.076;8.848;2023-08-24T10:47:20;100001.09;;;29.24;47.05
23996;BME280;12207;50.076;8.848;2023-08-24T10:52:30;100006.22;;;29.59;47.10
23996;BME280;12207;50.076;8.848;2023-08-24T10:54:56;100010.66;;;29.96;45.94
23996;BME280;12207;50.076;8.848;2023-08-24T11:00:08;99989.94;;;30.02;45.71
23996;BME280;12207;50.076;8.848;2023-08-24T11:02:49;99987.69;;;30.57;45.06
23996;BME280;12207;50.076;8.848;2023-08-24T11:07:50;99991.00;;;30.50;43.58
23996;BME280;12207;50.076;8.848;2023-08-24T11:10:17;99983.06;;;30.89;41.79
23996;BME280;12207;50.076;8.848;2023-08-24T11:15:43;99985.16;;;30.79;39.84
23996;BME280;12207;50.076;8.848;2023-08-24T11:18:20;99984.78;;;30.53;39.41
23996;BME280;12207;50.076;8.848;2023-08-24T11:20:50;99991.78;;;29.98;39.55
23996;BME280;12207;50.076;8.848;2023-08-24T11:23:20;99979.53;;;29.87;40.13
23996;BME280;12207;50.076;8.848;2023-08-24T11:25:48;99989.94;;;30.02;40.66
23996;BME280;12207;50.076;8.848;2023-08-24T11:28:20;99988.31;;;30.13;42.17
23996;BME280;12207;50.076;8.848;2023-08-24T11:30:47;99983.91;;;30.25;41.58
23996;BME280;12207;50.076;8.848;2023-08-24T11:33:13;99989.19;;;30.42;39.93
23996;BME280;12207;50.076;8.848;2023-08-24T11:35:45;99976.50;;;31.09;40.53
23996;BME280;12207;50.076;8.848;2023-08-24T11:38:11;99973.91;;;31.60;39.44
23996;BME280;12207;50.076;8.848;2023-08-24T11:40:38;99957.81;;;31.49;38.56
23996;BME280;12207;50.076;8.848;2023-08-24T11:43:04;99966.84;;;31.31;38.29
23996;BME280;12207;50.076;8.848;2023-08-24T11:45:35;99966.47;;;31.32;38.69
23996;BME280;12207;50.076;8.848;2023-08-24T11:48:03;99954.50;;;31.28;38.70
23996;BME280;12207;50.076;8.848;2023-08-24T11:50:37;99945.47;;;31.15;37.93
23996;BME280;12207;50.076;8.848;2023-08-24T11:53:05;99930.28;;;31.25;38.92
23996;BME280;12207;50.076;8.848;2023-08-24T11:55:39;99927.91;;;31.39;39.61
23996;BME280;12207;50.076;8.848;2023-08-24T11:58:05;99935.38;;;31.23;39.71
23996;BME280;12207;50.076;8.848;2023-08-24T12:00:38;99932.34;;;31.28;39.80
23996;BME280;12207;50.076;8.848;2023-08-24T12:03:05;99918.38;;;31.09;40.25
23996;BME280;12207;50.076;8.848;2023-08-24T12:05:31;99925.50;;;31.10;41.22
23996;BME280;12207;50.076;8.848;2023-08-24T12:07:57;99917.94;;;31.23;39.09
23996;BME280;12207;50.076;8.848;2023-08-24T12:10:23;99913.94;;;31.20;38.94
23996;BME280;12207;50.076;8.848;2023-08-24T12:12:49;99911.16;;;31.51;39.06
23996;BME280;12207;50.076;8.848;2023-08-24T12:15:28;99912.69;;;31.33;39.80
23996;BME280;12207;50.076;8.848;2023-08-24T12:17:54;99890.84;;;30.84;40.09
23996;BME280;12207;50.076;8.848;2023-08-24T12:20:22;99890.91;;;30.44;40.98
23996;BME280;12207;50.076;8.848;2023-08-24T12:22:53;99886.94;;;30.17;41.31
23996;BME280;12207;50.076;8.848;2023-08-24T12:25:25;99892.94;;;30.19;42.21
23996;BME280;12207;50.076;8.848;2023-08-24T12:27:52;99896.56;;;30.36;42.12
23996;BME280;12207;50.076;8.848;2023-08-24T12:30:22;99889.84;;;30.09;41.11
23996;BME280;12207;50.076;8.848;2023-08-24T12:32:48;99884.19;;;30.17;43.08
23996;BME280;12207;50.076;8.848;2023-08-24T12:35:19;99882.66;;;30.48;41.11
23996;BME280;12207;50.076;8.848;2023-08-24T12:37:45;99876.50;;;30.39;41.17
23996;BME280;12207;50.076;8.848;2023-08-24T12:40:12;99871.97;;;30.74;42.46
23996;BME280;12207;50.076;8.848;2023-08-24T12:42:42;99873.06;;;30.70;41.38
23996;BME280;12207;50.076;8.848;2023-08-24T12:45:08;99863.38;;;30.92;40.81
23996;BME280;12207;50.076;8.848;2023-08-24T12:47:37;99850.59;;;30.87;41.44
23996;BME280;12207;50.076;8.848;2023-08-24T12:50:05;99848.97;;;30.86;40.97
23996;BME280;12207;50.076;8.848;2023-08-24T12:52:32;99840.03;;;30.77;40.59
23996;BME280;12207;50.076;8.848;2023-08-24T12:54:58;99857.16;;;30.39;41.54
23996;BME280;12207;50.076;8.848;2023-08-24T12:57:24;99858.31;;;30.38;41.49
23996;BME280;12207;50.076;8.848;2023-08-24T12:59:50;99863.31;;;30.60;43.26
23996;BME280;12207;50.076;8.848;2023-08-24T13:02:17;99870.91;;;30.79;41.63
23996;BME280;12207;50.076;8.848;2023-08-24T13:04:43;99864.03;;;31.16;42.16
23996;BME280;12207;50.076;8.848;2023-08-24T13:07:09;99867.94;;;31.31;41.30